ENZV

Stavanger , Sola Airport

Stavanger, Norway
METAR ENZV 161750Z 32017KT 9999 BKN024 05/00 Q0986 NOSIG
Observed Flight Rules
Jan-16 @ 17:50 UTC (33 minutes ago) Marginal Visual Flight Rules
Wind Visibility Clouds
320° at 17 knots 10,000+ meters
  • Broken at 2,400' AGL
Temperatures Readings
Current 5°C / 41°F
Dewpoint 0°C / 32°F
Humidity 70%
Altimeter 29.11" Hg
Pressure 985.92 hPa
Elevation 9
METAR ENZV 161750Z 32017KT 9999 BKN024 05/00 Q0986 NOSIG
Observed Flight Rules
Jan-16 @ 17:50 UTC
(33 minutes ago)
MVFR
Wind Visibility
320° at 17 knots 10,000+ meters
Clouds
  • Broken at 2,400' AGL
Temperature Dewpoint
5°C / 41°F 0°C / 32°F
Humidity Altimeter Pressure
70% 29.11" Hg 985.92 hPa